Terminal Aerodrome Forecast
Issued by NWS

Home | Current Version | Previous Version | Text Only | Print | Product List | Glossary On
Versions: 1 2 3 4 5 6 7 8 9 10 11 12 13 14 15 16 17 18 19 20 21 22 23 24 25 26 27 28
527
FTUS41 KBUF 240958 AAA
TAFIAG
TAF AMD
KIAG 240958Z 2410/2506 04006KT 6SM -SHRA OVC020
     FM241100 06005KT 6SM -SHRA OVC003
     FM241300 VRB03KT 4SM SHRA OVC003
     FM241600 16005KT P6SM BKN035
     FM250400 15009KT P6SM BKN050=

USA.gov is the U.S. government's official web portal to all federal, state and local government web resources and services.